createdAt,value
2022-09-05T00:02:32.446Z,17.26
2022-09-05T00:05:21.296Z,17.04
2022-09-05T00:08:00.367Z,17.01
2022-09-05T00:11:39.622Z,17.09
2022-09-05T00:13:31.943Z,17.08
2022-09-05T00:16:08.860Z,17.05
2022-09-05T00:24:18.692Z,16.95
2022-09-05T00:24:25.376Z,17.09
2022-09-05T00:25:20.907Z,16.97
2022-09-05T00:27:47.687Z,17.01
2022-09-05T00:31:08.826Z,16.86
2022-09-05T00:33:19.919Z,16.80
2022-09-05T00:36:07.975Z,16.95
2022-09-05T00:38:37.392Z,16.92
2022-09-05T00:41:09.766Z,16.64
2022-09-05T00:43:41.992Z,16.67
2022-09-05T00:46:15.765Z,16.43
2022-09-05T00:48:52.128Z,16.35
2022-09-05T00:51:34.632Z,16.17
2022-09-05T00:54:28.326Z,16.24
2022-09-05T00:57:30.656Z,16.15
2022-09-05T01:00:17.051Z,16.02
2022-09-05T01:03:09.777Z,15.82
2022-09-05T01:05:50.000Z,15.78
2022-09-05T01:08:39.151Z,15.77
2022-09-05T01:11:12.537Z,15.83
2022-09-05T01:13:46.866Z,15.79
2022-09-05T01:16:24.528Z,15.86
2022-09-05T01:19:06.587Z,15.97
2022-09-05T01:22:06.626Z,16.14
2022-09-05T01:24:51.155Z,16.03
2022-09-05T01:29:12.879Z,16.07
2022-09-05T01:30:40.388Z,15.93
2022-09-05T01:33:19.839Z,16.01
2022-09-05T01:36:05.732Z,16.03
2022-09-05T01:38:48.324Z,16.00
2022-09-05T01:41:39.353Z,15.96
2022-09-05T01:44:29.040Z,16.00
2022-09-05T01:47:06.873Z,15.83
2022-09-05T01:49:52.553Z,15.90
2022-09-05T01:52:49.423Z,15.79
2022-09-05T01:56:01.959Z,16.03
2022-09-05T01:58:43.595Z,15.97
2022-09-05T02:01:30.191Z,15.76
2022-09-05T02:04:21.524Z,15.72
2022-09-05T02:06:55.803Z,15.65
2022-09-05T02:10:07.020Z,15.57
2022-09-05T02:12:41.306Z,15.49
2022-09-05T02:15:17.760Z,15.65
2022-09-05T02:17:53.152Z,15.71
2022-09-05T02:20:25.440Z,15.64
2022-09-05T02:23:04.443Z,15.72
2022-09-05T02:26:01.547Z,15.64
2022-09-05T02:28:38.238Z,15.58
2022-09-05T02:31:19.730Z,15.61
2022-09-05T02:34:01.765Z,15.62
2022-09-05T02:36:36.517Z,15.70
2022-09-05T02:45:02.775Z,15.63
2022-09-05T02:45:13.550Z,15.69
2022-09-05T02:45:31.337Z,15.66
2022-09-05T02:48:15.807Z,15.61
2022-09-05T02:57:28.063Z,15.42
2022-09-05T02:57:38.161Z,15.34
2022-09-05T02:57:38.340Z,15.40
2022-09-05T03:00:08.798Z,15.36
2022-09-05T03:02:50.781Z,15.53
2022-09-05T03:05:24.905Z,15.38
2022-09-05T03:08:23.757Z,15.39
2022-09-05T03:11:33.379Z,15.40
2022-09-05T03:14:40.072Z,15.32
2022-09-05T03:17:43.800Z,15.42
2022-09-05T03:20:42.493Z,15.38
2022-09-05T03:23:38.976Z,15.49
2022-09-05T03:26:44.069Z,15.42
2022-09-05T03:29:36.001Z,15.54
2022-09-05T03:32:53.283Z,15.41
2022-09-05T03:35:56.275Z,15.18
2022-09-05T03:39:03.863Z,15.20
2022-09-05T03:41:50.355Z,15.14
2022-09-05T03:44:34.922Z,15.11
2022-09-05T03:47:17.608Z,15.16
2022-09-05T03:54:02.899Z,15.08
2022-09-05T03:57:21.024Z,15.13
2022-09-05T03:57:24.554Z,15.17
2022-09-05T04:00:05.119Z,15.17
2022-09-05T04:07:48.151Z,15.15
2022-09-05T04:08:18.710Z,15.24
2022-09-05T04:08:30.974Z,15.33
2022-09-05T04:11:08.602Z,15.32
2022-09-05T04:13:41.118Z,15.29
2022-09-05T04:16:15.055Z,15.17
2022-09-05T04:18:47.566Z,15.22
2022-09-05T04:21:20.310Z,15.22
2022-09-05T04:24:00.047Z,15.31
2022-09-05T04:27:00.224Z,15.39
2022-09-05T04:29:41.008Z,15.30
2022-09-05T04:32:19.705Z,15.35
2022-09-05T04:35:08.389Z,15.46
2022-09-05T04:37:48.465Z,15.41
2022-09-05T04:40:42.041Z,15.45
2022-09-05T04:43:15.734Z,15.44
2022-09-05T04:45:51.125Z,15.29
2022-09-05T04:48:24.395Z,15.26
2022-09-05T04:51:08.404Z,15.22
2022-09-05T04:54:14.914Z,15.26
2022-09-05T04:56:47.653Z,15.24
2022-09-05T05:01:42.070Z,15.22
2022-09-05T05:06:15.484Z,15.29
2022-09-05T05:06:15.945Z,15.29
2022-09-05T05:08:03.515Z,15.44
2022-09-05T05:11:50.029Z,15.37
2022-09-05T05:17:55.336Z,15.48
2022-09-05T05:18:13.757Z,15.63
2022-09-05T05:19:21.981Z,15.64
2022-09-05T05:21:54.094Z,15.51
2022-09-05T05:24:26.765Z,15.45
2022-09-05T05:27:04.135Z,15.41
2022-09-05T05:29:44.004Z,15.54
2022-09-05T05:32:19.532Z,15.52
2022-09-05T05:35:10.950Z,15.57
2022-09-05T05:37:43.936Z,15.61
2022-09-05T05:40:19.959Z,15.80
2022-09-05T05:42:48.149Z,15.73
2022-09-05T05:45:18.648Z,15.74
2022-09-05T05:47:50.585Z,15.63
2022-09-05T05:50:35.054Z,15.67
2022-09-05T05:53:29.161Z,15.91
2022-09-05T05:56:29.881Z,15.85
2022-09-05T05:59:09.305Z,15.87
2022-09-05T06:02:26.674Z,15.83
2022-09-05T06:05:28.530Z,15.78
2022-09-05T06:10:24.253Z,15.88
2022-09-05T06:14:50.528Z,15.95
2022-09-05T06:14:59.830Z,16.04
2022-09-05T06:17:37.423Z,16.21
2022-09-05T06:22:10.592Z,16.52
2022-09-05T06:24:12.282Z,16.83
2022-09-05T06:26:58.937Z,17.17
2022-09-05T06:29:38.601Z,17.43
2022-09-05T06:32:21.988Z,17.79
2022-09-05T06:35:17.791Z,18.19
2022-09-05T06:37:54.623Z,18.57
2022-09-05T06:40:32.209Z,19.00
2022-09-05T06:43:09.203Z,19.24
2022-09-05T06:46:03.687Z,19.62
2022-09-05T06:48:46.422Z,20.03
2022-09-05T06:51:47.488Z,20.30
2022-09-05T06:54:39.987Z,20.57
2022-09-05T06:57:49.550Z,20.74
2022-09-05T07:00:23.631Z,21.29
2022-09-05T07:03:15.577Z,21.69
2022-09-05T07:05:55.868Z,22.20
2022-09-05T07:08:37.393Z,22.31
2022-09-05T07:11:16.758Z,21.99
2022-09-05T07:13:57.582Z,22.63
2022-09-05T07:16:38.914Z,22.00
2022-09-05T07:19:18.623Z,21.26
2022-09-05T07:22:04.357Z,21.49
2022-09-05T07:24:54.365Z,21.31
2022-09-05T07:27:58.752Z,21.18
2022-09-05T07:30:24.855Z,21.02
2022-09-05T07:32:55.237Z,20.97
2022-09-05T07:35:29.266Z,20.90
2022-09-05T07:38:06.925Z,21.28
2022-09-05T07:40:39.468Z,22.33
2022-09-05T07:43:11.111Z,22.86
2022-09-05T07:45:46.418Z,23.72
2022-09-05T07:48:34.175Z,24.25
2022-09-05T07:56:46.499Z,23.60
2022-09-05T07:57:01.707Z,24.41
2022-09-05T07:57:20.827Z,24.34
2022-09-05T07:59:41.314Z,23.39
2022-09-05T08:02:11.328Z,23.36
2022-09-05T08:04:41.849Z,23.71
2022-09-05T08:07:47.734Z,24.42
2022-09-05T08:10:09.170Z,24.32
2022-09-05T08:13:00.612Z,25.24
2022-09-05T08:15:39.630Z,25.87
2022-09-05T08:18:25.785Z,25.67
2022-09-05T08:20:58.540Z,25.21
2022-09-05T08:23:51.371Z,24.40
2022-09-05T08:26:30.569Z,23.54
2022-09-05T08:29:05.498Z,23.36
2022-09-05T08:31:41.959Z,23.38
2022-09-05T08:34:16.033Z,23.10
2022-09-05T08:36:47.254Z,23.07
2022-09-05T08:39:20.040Z,22.86
2022-09-05T08:42:23.855Z,22.63
2022-09-05T08:46:39.246Z,22.20
2022-09-05T08:48:09.892Z,22.27
2022-09-05T08:50:54.848Z,22.17
2022-09-05T08:53:46.554Z,21.95
2022-09-05T08:56:20.636Z,22.06
2022-09-05T08:59:32.096Z,22.03
2022-09-05T09:02:45.503Z,21.97
2022-09-05T09:05:14.539Z,22.09
2022-09-05T09:07:50.826Z,22.00
2022-09-05T09:10:40.598Z,22.23
2022-09-05T09:13:35.965Z,22.25
2022-09-05T09:16:10.997Z,21.97
2022-09-05T09:19:02.133Z,21.73
2022-09-05T09:21:40.688Z,21.83
2022-09-05T09:24:23.231Z,21.94
2022-09-05T09:26:57.195Z,21.84
2022-09-05T09:29:26.552Z,21.90
2022-09-05T09:32:03.995Z,22.01
2022-09-05T09:34:49.296Z,22.08
2022-09-05T09:37:53.416Z,21.99
2022-09-05T09:40:33.150Z,21.73
2022-09-05T09:43:07.337Z,21.84
2022-09-05T09:46:04.351Z,21.66
2022-09-05T09:49:21.646Z,21.63
2022-09-05T09:52:20.781Z,21.61
2022-09-05T09:55:34.079Z,21.63
2022-09-05T09:58:29.515Z,21.52
2022-09-05T10:01:09.838Z,21.70
2022-09-05T10:09:25.162Z,21.94
2022-09-05T10:10:55.367Z,22.08
2022-09-05T10:11:23.797Z,22.13
2022-09-05T10:13:34.733Z,22.25
2022-09-05T10:16:33.121Z,22.20
2022-09-05T10:22:41.881Z,22.29
2022-09-05T10:25:29.326Z,22.47
2022-09-05T10:28:05.964Z,22.65
2022-09-05T10:32:56.048Z,22.82
2022-09-05T10:35:17.243Z,23.26
2022-09-05T10:36:29.159Z,23.51
2022-09-05T10:39:18.886Z,24.31
2022-09-05T10:41:53.439Z,23.83
2022-09-05T10:44:29.184Z,24.90
2022-09-05T10:47:09.207Z,25.51
2022-09-05T10:49:43.413Z,25.60
2022-09-05T10:52:18.823Z,25.73
2022-09-05T10:55:14.536Z,26.75
2022-09-05T10:57:57.796Z,26.57
2022-09-05T11:02:23.325Z,27.26
2022-09-05T11:03:46.803Z,27.45
2022-09-05T11:06:24.880Z,27.46
2022-09-05T11:09:01.529Z,28.48
2022-09-05T11:11:34.675Z,28.81
2022-09-05T11:14:07.340Z,28.51
2022-09-05T11:16:57.822Z,27.91
2022-09-05T11:19:38.202Z,29.11
2022-09-05T11:22:22.805Z,29.12
2022-09-05T11:24:56.568Z,28.43
2022-09-05T11:27:33.041Z,28.88
2022-09-05T11:30:05.395Z,28.89
2022-09-05T11:38:55.099Z,28.55
2022-09-05T11:40:00.001Z,27.45
2022-09-05T11:40:07.229Z,27.96
2022-09-05T11:42:31.473Z,28.68
2022-09-05T11:45:23.326Z,30.58
2022-09-05T11:48:36.132Z,31.59
2022-09-05T11:51:37.807Z,32.74
2022-09-05T11:54:39.926Z,33.48
2022-09-05T11:57:42.897Z,35.58
2022-09-05T12:00:31.284Z,33.30
2022-09-05T12:03:59.654Z,33.25
2022-09-05T12:06:50.751Z,32.28
2022-09-05T12:09:33.223Z,31.88
2022-09-05T12:12:34.110Z,32.76
2022-09-05T12:15:27.050Z,33.79
2022-09-05T12:18:19.138Z,35.00
2022-09-05T12:20:57.412Z,35.13
2022-09-05T12:23:55.226Z,35.71
2022-09-05T12:27:39.806Z,33.18
2022-09-05T12:29:34.931Z,33.08
2022-09-05T12:33:58.465Z,34.92
2022-09-05T12:36:10.454Z,33.98
2022-09-05T12:40:56.097Z,34.10
2022-09-05T12:41:38.191Z,34.27
2022-09-05T12:44:37.783Z,33.91
2022-09-05T12:46:38.173Z,33.57
2022-09-05T12:49:11.713Z,32.52
2022-09-05T12:51:47.676Z,33.31
2022-09-05T12:54:33.477Z,33.33
2022-09-05T13:02:48.695Z,33.09
2022-09-05T13:03:04.851Z,30.88
2022-09-05T13:03:06.072Z,30.85
2022-09-05T13:05:52.695Z,31.10
2022-09-05T13:08:22.350Z,30.57
2022-09-05T13:14:53.868Z,31.37
2022-09-05T13:14:54.537Z,30.72
2022-09-05T13:16:41.336Z,30.93
2022-09-05T13:19:29.340Z,32.74
2022-09-05T13:21:59.088Z,33.38
2022-09-05T13:24:32.139Z,34.75
2022-09-05T13:27:08.752Z,33.80
2022-09-05T13:30:29.754Z,35.36
2022-09-05T13:37:58.358Z,34.67
2022-09-05T13:37:59.371Z,35.69
2022-09-05T13:38:48.958Z,36.54
2022-09-05T13:41:28.395Z,36.88
2022-09-05T13:44:00.232Z,36.76
2022-09-05T13:46:58.529Z,35.61
2022-09-05T13:49:32.209Z,35.94
2022-09-05T13:52:13.655Z,36.37
2022-09-05T13:54:50.802Z,34.52
2022-09-05T13:57:31.681Z,36.06
2022-09-05T14:00:38.239Z,33.62
2022-09-05T14:03:39.392Z,31.75
2022-09-05T14:06:46.576Z,30.26
2022-09-05T14:09:37.854Z,29.44
2022-09-05T14:12:19.644Z,28.26
2022-09-05T14:15:09.353Z,28.00
2022-09-05T14:17:55.387Z,27.32
2022-09-05T14:20:49.345Z,27.20
2022-09-05T14:23:19.843Z,27.16
2022-09-05T14:25:53.353Z,27.25
2022-09-05T14:28:28.250Z,27.29
2022-09-05T14:37:35.120Z,28.06
2022-09-05T14:37:38.624Z,27.79
2022-09-05T14:37:42.765Z,28.72
2022-09-05T14:40:30.444Z,29.42
2022-09-05T14:43:37.964Z,29.68
2022-09-05T14:46:17.868Z,29.92
2022-09-05T14:49:01.290Z,28.70
2022-09-05T14:51:43.290Z,28.21
2022-09-05T14:59:49.711Z,27.58
2022-09-05T15:02:54.499Z,27.53
2022-09-05T15:03:01.897Z,27.32
2022-09-05T15:05:44.684Z,26.81
2022-09-05T15:10:06.424Z,26.81
2022-09-05T15:12:19.619Z,26.70
2022-09-05T15:14:03.552Z,26.40
2022-09-05T15:16:32.908Z,26.33
2022-09-05T15:19:00.719Z,25.73
2022-09-05T15:21:34.265Z,25.50
2022-09-05T15:24:13.460Z,25.50
2022-09-05T15:26:53.118Z,25.73
2022-09-05T15:29:25.131Z,26.04
2022-09-05T15:32:09.358Z,26.61
2022-09-05T15:34:39.090Z,27.65
2022-09-05T15:37:23.299Z,28.56
2022-09-05T15:40:01.657Z,29.12
2022-09-05T15:42:32.842Z,30.53
2022-09-05T15:45:10.969Z,31.47
2022-09-05T15:47:44.541Z,31.67
2022-09-05T15:50:22.161Z,31.75
2022-09-05T15:52:55.281Z,32.45
2022-09-05T15:55:25.182Z,31.83
2022-09-05T15:58:00.964Z,32.27
2022-09-05T16:00:41.075Z,32.31
2022-09-05T16:06:08.362Z,32.09
2022-09-05T16:10:31.653Z,31.49
2022-09-05T16:10:36.109Z,32.30
2022-09-05T16:12:13.872Z,32.79
2022-09-05T16:14:43.582Z,31.85
2022-09-05T16:23:20.017Z,29.01
2022-09-05T16:23:30.082Z,27.47
2022-09-05T16:23:43.933Z,28.77
2022-09-05T16:26:12.847Z,28.14
2022-09-05T16:28:47.966Z,28.10
2022-09-05T16:31:22.227Z,27.89
2022-09-05T16:33:50.573Z,27.47
2022-09-05T16:36:22.300Z,27.14
2022-09-05T16:38:53.393Z,26.22
2022-09-05T16:41:26.555Z,25.50
2022-09-05T16:43:58.025Z,25.00
2022-09-05T16:46:32.574Z,24.48
2022-09-05T16:49:07.074Z,24.39
2022-09-05T16:51:44.544Z,23.90
2022-09-05T16:54:17.506Z,23.72
2022-09-05T16:56:49.546Z,23.57
2022-09-05T16:59:22.802Z,23.48
2022-09-05T17:02:08.368Z,23.24
2022-09-05T17:05:04.316Z,23.11
2022-09-05T17:07:42.309Z,23.04
2022-09-05T17:10:12.402Z,22.96
2022-09-05T17:12:42.381Z,22.91
2022-09-05T17:15:14.897Z,22.72
2022-09-05T17:18:21.677Z,22.58
2022-09-05T17:20:49.937Z,22.53
2022-09-05T17:29:28.940Z,22.36
2022-09-05T17:29:30.720Z,22.42
2022-09-05T17:29:36.231Z,22.54
2022-09-05T17:32:01.015Z,22.32
2022-09-05T17:35:17.390Z,22.29
2022-09-05T17:38:28.432Z,22.24
2022-09-05T17:41:20.335Z,22.05
2022-09-05T17:43:57.860Z,21.86
2022-09-05T17:46:29.011Z,21.83
2022-09-05T17:49:19.962Z,21.69
2022-09-05T17:52:26.913Z,21.66
2022-09-05T17:54:57.352Z,21.64
2022-09-05T17:57:44.261Z,21.54
2022-09-05T18:01:00.224Z,21.47
2022-09-05T18:04:13.198Z,21.42
2022-09-05T18:06:59.058Z,21.30
2022-09-05T18:10:12.908Z,21.30
2022-09-05T18:13:14.221Z,21.36
2022-09-05T18:16:12.322Z,21.25
2022-09-05T18:19:29.566Z,21.26
2022-09-05T18:21:53.214Z,20.90
2022-09-05T18:24:35.046Z,20.83
2022-09-05T18:27:44.026Z,20.86
2022-09-05T18:30:07.729Z,20.81
2022-09-05T18:32:40.920Z,20.75
2022-09-05T18:35:26.710Z,20.69
2022-09-05T18:38:49.987Z,20.69
2022-09-05T18:41:19.249Z,20.67
2022-09-05T18:44:12.514Z,20.60
2022-09-05T18:46:46.013Z,20.62
2022-09-05T18:50:22.232Z,20.54
2022-09-05T18:52:11.439Z,20.40
2022-09-05T18:54:44.911Z,20.34
2022-09-05T18:57:29.734Z,20.33
2022-09-05T19:00:04.591Z,20.36
2022-09-05T19:02:51.319Z,20.26
2022-09-05T19:05:40.492Z,20.12
2022-09-05T19:08:28.843Z,19.99
2022-09-05T19:11:27.649Z,20.03
2022-09-05T19:13:57.881Z,20.14
2022-09-05T19:16:48.027Z,20.07
2022-09-05T19:19:18.417Z,19.94
2022-09-05T19:22:14.614Z,19.96
2022-09-05T19:24:45.369Z,19.87
2022-09-05T19:28:53.403Z,19.82
2022-09-05T19:36:58.908Z,19.89
2022-09-05T19:36:59.162Z,19.85
2022-09-05T19:37:08.358Z,19.88
2022-09-05T19:40:29.601Z,19.89
2022-09-05T19:47:29.003Z,19.96
2022-09-05T19:47:35.723Z,19.77
2022-09-05T19:47:37.379Z,19.80
2022-09-05T19:50:11.461Z,19.74
2022-09-05T19:52:40.661Z,19.79
2022-09-05T19:55:21.807Z,19.74
2022-09-05T19:58:14.995Z,19.53
2022-09-05T20:00:55.579Z,19.67
2022-09-05T20:03:34.576Z,19.67
2022-09-05T20:06:28.911Z,19.65
2022-09-05T20:09:09.679Z,19.51
2022-09-05T20:11:45.562Z,19.39
2022-09-05T20:14:19.724Z,19.49
2022-09-05T20:16:49.746Z,19.54
2022-09-05T20:19:32.180Z,19.48
2022-09-05T20:22:47.899Z,19.56
2022-09-05T20:24:56.667Z,19.59
2022-09-05T20:27:28.203Z,19.51
2022-09-05T20:29:59.019Z,19.40
2022-09-05T20:32:40.055Z,19.41
2022-09-05T20:39:07.054Z,19.31
2022-09-05T20:43:16.872Z,19.23
2022-09-05T20:43:18.387Z,19.31
2022-09-05T20:43:54.561Z,19.21
2022-09-05T20:49:00.869Z,19.15
2022-09-05T20:54:14.767Z,19.31
2022-09-05T20:54:15.841Z,19.17
2022-09-05T20:55:39.403Z,19.41
2022-09-05T20:58:10.323Z,19.38
2022-09-05T21:00:39.685Z,19.43
2022-09-05T21:03:09.223Z,19.47
2022-09-05T21:05:39.691Z,19.39
2022-09-05T21:08:25.844Z,19.38
2022-09-05T21:10:57.330Z,19.38
2022-09-05T21:13:27.899Z,19.36
2022-09-05T21:15:56.966Z,19.40
2022-09-05T21:18:33.763Z,19.16
2022-09-05T21:21:10.304Z,18.94
2022-09-05T21:24:16.473Z,18.97
2022-09-05T21:26:48.962Z,18.89
2022-09-05T21:29:24.477Z,18.92
2022-09-05T21:32:01.210Z,18.63
2022-09-05T21:34:34.369Z,18.66
2022-09-05T21:37:07.092Z,18.62
2022-09-05T21:39:40.135Z,18.59
2022-09-05T21:47:34.257Z,18.47
2022-09-05T21:47:47.784Z,18.49
2022-09-05T21:47:53.152Z,18.58
2022-09-05T21:50:30.874Z,18.49
2022-09-05T21:54:10.207Z,18.44
2022-09-05T21:59:20.377Z,18.39
2022-09-05T21:59:20.626Z,18.42
2022-09-05T22:01:51.162Z,18.45
2022-09-05T22:04:17.550Z,18.46
2022-09-05T22:06:48.854Z,18.49
2022-09-05T22:09:17.281Z,18.57
2022-09-05T22:11:50.550Z,18.44
2022-09-05T22:14:20.964Z,18.55
2022-09-05T22:16:50.448Z,18.60
2022-09-05T22:19:26.152Z,18.36
2022-09-05T22:22:06.665Z,18.42
2022-09-05T22:24:36.544Z,18.27
2022-09-05T22:27:12.209Z,18.21
2022-09-05T22:29:43.051Z,18.13
2022-09-05T22:32:15.598Z,17.96
2022-09-05T22:34:43.549Z,18.08
2022-09-05T22:37:13.975Z,18.02
2022-09-05T22:39:42.360Z,18.08
2022-09-05T22:42:11.120Z,17.91
2022-09-05T22:44:39.870Z,17.98
2022-09-05T22:47:10.150Z,17.98
2022-09-05T22:49:37.982Z,17.95
2022-09-05T22:52:08.040Z,17.93
2022-09-05T22:54:36.804Z,17.92
2022-09-05T22:57:05.535Z,17.88
2022-09-05T22:59:33.330Z,17.92
2022-09-05T23:02:01.213Z,17.97
2022-09-05T23:04:30.394Z,18.07
2022-09-05T23:07:02.346Z,17.80
2022-09-05T23:09:30.596Z,17.79
2022-09-05T23:11:58.306Z,17.72
2022-09-05T23:14:26.019Z,17.66
2022-09-05T23:16:53.791Z,17.70
2022-09-05T23:19:21.525Z,17.62
2022-09-05T23:21:50.647Z,17.67
2022-09-05T23:24:18.480Z,17.64
2022-09-05T23:26:46.364Z,17.59
2022-09-05T23:29:14.144Z,17.68
2022-09-05T23:31:42.039Z,17.67
2022-09-05T23:34:09.959Z,17.73
2022-09-05T23:36:37.732Z,17.70
2022-09-05T23:39:06.861Z,17.63
2022-09-05T23:41:34.708Z,17.69
2022-09-05T23:44:02.902Z,17.74
2022-09-05T23:46:32.153Z,17.78
2022-09-05T23:49:00.048Z,17.67
2022-09-05T23:51:28.008Z,17.71
2022-09-05T23:53:55.755Z,17.71
2022-09-05T23:56:24.855Z,17.75
2022-09-05T23:58:52.603Z,17.71
